Time;durP1;ratioP1;P1;durP2;ratioP2;P2;SDS_P1;SDS_P2;PMS_P1;PMS_P2;Temp;Humidity;BMP_temperature;BMP_pressure;BME280_temperature;BME280_humidity;BME280_pressure;Samples;Min_cycle;Max_cycle;Signal;HPM_P1;HPM_P2
2021/03/12 00:02:05;;;;;;;1.03;0.70;;;;;;;;;;5053392;28;20239;-74
2021/03/12 00:04:32;;;;;;;1.07;1.00;;;;;;;;;;5052630;28;20540;-74
2021/03/12 00:06:58;;;;;;;3.08;0.98;;;;;;;;;;5052585;28;20467;-75
2021/03/12 00:09:24;;;;;;;1.40;1.30;;;;;;;;;;5052904;28;20194;-74
2021/03/12 00:11:52;;;;;;;0.70;0.50;;;;;;;;;;5052877;28;20448;-71
2021/03/12 00:14:18;;;;;;;0.70;0.68;;;;;;;;;;5052834;28;20485;-73
2021/03/12 00:16:44;;;;;;;1.60;1.50;;;;;;;;;;5052836;28;20260;-73
2021/03/12 00:19:10;;;;;;;1.13;0.80;;;;;;;;;;5052990;28;20284;-71
2021/03/12 00:21:37;;;;;;;0.90;0.60;;;;;;;;;;5052599;28;20515;-74
2021/03/12 00:24:03;;;;;;;0.90;0.70;;;;;;;;;;5053083;28;20518;-74
2021/03/12 00:26:29;;;;;;;0.85;0.70;;;;;;;;;;5053225;28;20209;-74
2021/03/12 00:28:55;;;;;;;1.00;0.60;;;;;;;;;;5052442;28;20193;-72
2021/03/12 00:31:21;;;;;;;0.90;0.80;;;;;;;;;;5052796;28;20537;-74
2021/03/12 00:33:47;;;;;;;4.00;0.80;;;;;;;;;;5053193;28;20554;-74
2021/03/12 00:36:13;;;;;;;1.10;0.90;;;;;;;;;;5052419;28;20475;-73
2021/03/12 00:38:40;;;;;;;1.70;1.10;;;;;;;;;;5052700;28;20464;-73
2021/03/12 00:41:07;;;;;;;0.90;0.70;;;;;;;;;;5052782;28;20201;-74
2021/03/12 00:43:33;;;;;;;5.07;1.00;;;;;;;;;;5052482;28;20386;-74
2021/03/12 00:46:00;;;;;;;2.90;0.90;;;;;;;;;;5052241;28;20234;-74
2021/03/12 00:48:26;;;;;;;5.63;1.50;;;;;;;;;;5053044;28;20631;-73
2021/03/12 00:50:52;;;;;;;0.77;0.77;;;;;;;;;;5052662;28;20223;-73
2021/03/12 00:53:18;;;;;;;2.95;1.08;;;;;;;;;;5052723;28;20276;-72
2021/03/12 00:55:45;;;;;;;0.80;0.77;;;;;;;;;;5052849;28;20192;-72
2021/03/12 00:58:11;;;;;;;0.98;0.80;;;;;;;;;;5052320;28;20221;-73
2021/03/12 01:00:38;;;;;;;3.92;0.88;;;;;;;;;;5053088;28;20181;-74
2021/03/12 01:03:04;;;;;;;0.70;0.60;;;;;;;;;;5053023;28;20225;-74
2021/03/12 01:05:30;;;;;;;1.02;0.60;;;;;;;;;;5055410;28;20215;-74
2021/03/12 01:07:56;;;;;;;4.97;0.90;;;;;;;;;;5056176;28;20182;-75
2021/03/12 01:10:23;;;;;;;1.30;0.80;;;;;;;;;;5056190;28;20506;-75
2021/03/12 01:12:50;;;;;;;0.70;0.50;;;;;;;;;;5055908;28;20473;-73
2021/03/12 01:15:17;;;;;;;1.02;0.75;;;;;;;;;;5056279;28;20263;-72
2021/03/12 01:17:43;;;;;;;4.57;0.88;;;;;;;;;;5056344;28;20387;-74
2021/03/12 01:20:10;;;;;;;3.28;1.70;;;;;;;;;;5055684;28;20651;-75
2021/03/12 01:22:36;;;;;;;1.55;0.77;;;;;;;;;;5056037;28;20185;-73
2021/03/12 01:25:04;;;;;;;2.07;0.73;;;;;;;;;;5056367;28;20638;-75
2021/03/12 01:27:38;;;;;;;1.10;0.80;;;;;;;;;;5055620;28;20448;-74
2021/03/12 01:30:07;;;;;;;1.42;1.33;;;;;;;;;;5056150;28;20182;-73
2021/03/12 01:32:33;;;;;;;0.90;0.82;;;;;;;;;;5056006;28;20587;-73
2021/03/12 01:34:59;;;;;;;4.37;2.40;;;;;;;;;;5054948;28;20255;-74
2021/03/12 01:37:25;;;;;;;2.07;1.20;;;;;;;;;;5055286;28;20470;-75
2021/03/12 01:39:50;;;;;;;0.70;0.60;;;;;;;;;;5055696;28;20423;-73
2021/03/12 01:42:16;;;;;;;1.63;0.80;;;;;;;;;;5055784;28;20498;-73
2021/03/12 01:44:42;;;;;;;1.40;0.80;;;;;;;;;;5055531;28;20820;-74
2021/03/12 01:47:09;;;;;;;3.20;0.95;;;;;;;;;;5055615;28;20432;-71
2021/03/12 01:49:35;;;;;;;0.90;0.80;;;;;;;;;;5055141;28;20244;-73
2021/03/12 01:52:01;;;;;;;1.20;1.00;;;;;;;;;;5055424;28;20532;-73
2021/03/12 01:54:27;;;;;;;1.20;0.70;;;;;;;;;;5054952;28;20447;-73
2021/03/12 01:56:53;;;;;;;0.80;0.73;;;;;;;;;;5054506;28;20498;-73
2021/03/12 01:59:19;;;;;;;1.10;0.60;;;;;;;;;;5054483;28;20932;-73
2021/03/12 02:01:44;;;;;;;0.90;0.70;;;;;;;;;;5054747;28;20196;-74
2021/03/12 02:04:11;;;;;;;1.20;0.90;;;;;;;;;;5036256;28;20453;-74
2021/03/12 02:06:37;;;;;;;1.23;1.13;;;;;;;;;;5035351;28;20490;-73
2021/03/12 02:09:03;;;;;;;1.10;0.83;;;;;;;;;;5035227;28;20194;-73
2021/03/12 02:11:29;;;;;;;0.95;0.90;;;;;;;;;;5035079;28;20449;-71
2021/03/12 02:13:59;;;;;;;3.57;0.90;;;;;;;;;;5039683;28;20209;-74
2021/03/12 02:16:27;;;;;;;1.48;0.70;;;;;;;;;;5053609;28;20424;-73
2021/03/12 02:18:57;;;;;;;0.80;0.80;;;;;;;;;;5054197;28;20251;-73
2021/03/12 02:21:26;;;;;;;1.23;0.85;;;;;;;;;;5055178;28;20258;-73
2021/03/12 02:24:05;;;;;;;0.77;0.60;;;;;;;;;;5054435;28;20200;-74
2021/03/12 02:26:35;;;;;;;5.68;1.83;;;;;;;;;;5053096;28;20185;-73
2021/03/12 02:29:03;;;;;;;3.25;1.40;;;;;;;;;;5053619;28;20639;-73
2021/03/12 02:31:30;;;;;;;0.82;0.73;;;;;;;;;;5042039;28;20708;-72
2021/03/12 02:33:58;;;;;;;3.03;1.73;;;;;;;;;;5052333;28;20279;-73
2021/03/12 02:36:27;;;;;;;3.20;0.77;;;;;;;;;;5035601;28;20233;-74
2021/03/12 02:38:54;;;;;;;0.80;0.70;;;;;;;;;;5034665;28;20244;-73
2021/03/12 02:41:24;;;;;;;0.90;0.80;;;;;;;;;;5034245;28;20207;-73
2021/03/12 02:43:51;;;;;;;4.40;1.50;;;;;;;;;;5034649;28;20189;-72
2021/03/12 02:46:18;;;;;;;3.63;0.90;;;;;;;;;;5045230;28;20232;-71
2021/03/12 02:48:44;;;;;;;3.10;1.15;;;;;;;;;;5054661;28;20239;-73
2021/03/12 02:51:10;;;;;;;4.13;0.95;;;;;;;;;;5054688;28;20228;-73
2021/03/12 02:53:37;;;;;;;1.13;1.02;;;;;;;;;;5040868;28;20201;-74
2021/03/12 02:56:03;;;;;;;2.95;1.20;;;;;;;;;;5034782;28;20208;-73
2021/03/12 02:58:29;;;;;;;2.30;1.50;;;;;;;;;;5041816;28;20209;-75
2021/03/12 03:00:55;;;;;;;4.22;0.95;;;;;;;;;;5040501;28;20276;-74
2021/03/12 03:03:22;;;;;;;0.80;0.60;;;;;;;;;;5054776;28;20212;-75
2021/03/12 03:05:48;;;;;;;3.58;1.00;;;;;;;;;;5054607;28;20691;-75
2021/03/12 03:08:15;;;;;;;3.00;0.98;;;;;;;;;;5054034;28;20235;-74
2021/03/12 03:10:42;;;;;;;10.60;1.23;;;;;;;;;;5053792;28;20200;-74
2021/03/12 03:13:09;;;;;;;1.52;0.98;;;;;;;;;;5053748;28;20299;-74
2021/03/12 03:15:35;;;;;;;2.70;2.50;;;;;;;;;;5054415;28;20200;-75
2021/03/12 03:18:02;;;;;;;0.90;0.80;;;;;;;;;;5053755;28;20229;-74
2021/03/12 03:20:29;;;;;;;3.22;1.02;;;;;;;;;;5046270;28;20225;-76
2021/03/12 03:22:55;;;;;;;1.80;1.00;;;;;;;;;;5034130;28;20288;-75
2021/03/12 03:25:21;;;;;;;3.10;0.60;;;;;;;;;;5034132;28;20250;-75
2021/03/12 03:27:47;;;;;;;3.08;1.70;;;;;;;;;;5042679;28;20293;-75
2021/03/12 03:30:15;;;;;;;4.77;1.13;;;;;;;;;;5034321;28;20553;-75
2021/03/12 03:32:41;;;;;;;1.60;0.90;;;;;;;;;;5034025;28;20517;-74
2021/03/12 03:35:07;;;;;;;4.97;1.52;;;;;;;;;;5040014;28;20219;-75
2021/03/12 03:37:35;;;;;;;7.88;1.55;;;;;;;;;;5053850;28;20248;-73
2021/03/12 03:40:01;;;;;;;6.28;1.50;;;;;;;;;;5053880;28;20201;-75
2021/03/12 03:42:29;;;;;;;1.13;0.90;;;;;;;;;;5052963;28;20216;-75
2021/03/12 03:44:56;;;;;;;0.85;0.60;;;;;;;;;;5049723;28;20222;-74
2021/03/12 03:47:22;;;;;;;2.03;0.93;;;;;;;;;;5034225;28;20186;-75
2021/03/12 03:49:48;;;;;;;4.25;1.17;;;;;;;;;;5052771;28;20302;-75
2021/03/12 03:52:15;;;;;;;2.65;1.20;;;;;;;;;;5053310;28;20640;-74
2021/03/12 03:54:42;;;;;;;1.00;0.90;;;;;;;;;;5048740;28;20588;-75
2021/03/12 03:57:09;;;;;;;2.03;0.80;;;;;;;;;;5052624;28;20217;-75
2021/03/12 03:59:37;;;;;;;0.70;0.60;;;;;;;;;;5053103;28;20297;-74
2021/03/12 04:02:04;;;;;;;3.22;1.48;;;;;;;;;;5037784;28;20608;-74
2021/03/12 04:04:30;;;;;;;4.25;1.08;;;;;;;;;;5032947;28;20287;-75
2021/03/12 04:06:56;;;;;;;9.07;0.90;;;;;;;;;;5033012;28;20281;-73
2021/03/12 04:09:22;;;;;;;1.33;0.73;;;;;;;;;;5033423;28;20194;-75
2021/03/12 04:11:49;;;;;;;4.30;1.85;;;;;;;;;;5046994;28;20948;-74
2021/03/12 04:14:16;;;;;;;1.35;0.80;;;;;;;;;;5052644;28;20243;-73
2021/03/12 04:16:42;;;;;;;5.50;1.33;;;;;;;;;;5037465;28;20675;-75
2021/03/12 04:19:09;;;;;;;3.28;0.90;;;;;;;;;;5052575;28;20225;-75
2021/03/12 04:21:35;;;;;;;2.60;0.88;;;;;;;;;;5051955;28;20213;-74
2021/03/12 04:24:01;;;;;;;0.93;0.70;;;;;;;;;;5052352;28;20228;-75
2021/03/12 04:26:28;;;;;;;2.03;0.80;;;;;;;;;;5052448;28;20280;-75
2021/03/12 04:28:55;;;;;;;2.53;0.88;;;;;;;;;;5035373;28;20272;-73
2021/03/12 04:31:21;;;;;;;1.30;1.00;;;;;;;;;;5032606;28;20206;-75
2021/03/12 04:33:48;;;;;;;1.65;1.10;;;;;;;;;;5033165;28;20292;-75
2021/03/12 04:36:14;;;;;;;2.58;1.27;;;;;;;;;;5032489;28;20256;-74
2021/03/12 04:38:40;;;;;;;1.38;0.95;;;;;;;;;;5034029;28;20213;-74
2021/03/12 04:41:06;;;;;;;3.28;0.95;;;;;;;;;;5036422;28;20196;-74
2021/03/12 04:43:33;;;;;;;7.75;1.20;;;;;;;;;;5036727;28;20653;-74
2021/03/12 04:46:01;;;;;;;4.32;1.20;;;;;;;;;;5036767;28;20284;-74
2021/03/12 04:48:27;;;;;;;3.85;0.80;;;;;;;;;;5036659;28;20193;-74
2021/03/12 04:50:53;;;;;;;1.10;1.00;;;;;;;;;;5052168;28;20225;-75
2021/03/12 04:53:19;;;;;;;6.70;1.10;;;;;;;;;;5056009;28;20189;-74
2021/03/12 04:55:45;;;;;;;2.33;1.42;;;;;;;;;;5056333;28;20272;-75
2021/03/12 04:58:11;;;;;;;1.88;1.10;;;;;;;;;;5055813;28;20217;-75
2021/03/12 05:00:37;;;;;;;1.10;1.00;;;;;;;;;;5056481;28;20186;-75
2021/03/12 05:03:05;;;;;;;3.20;1.63;;;;;;;;;;5056359;28;20971;-75
2021/03/12 05:05:31;;;;;;;3.20;1.20;;;;;;;;;;5056074;28;20475;-74
2021/03/12 05:07:57;;;;;;;3.63;0.90;;;;;;;;;;5055705;28;20315;-75
2021/03/12 05:10:23;;;;;;;0.98;0.75;;;;;;;;;;5056636;28;20206;-73
2021/03/12 05:12:48;;;;;;;6.27;1.10;;;;;;;;;;5056591;28;20273;-73
2021/03/12 05:15:14;;;;;;;1.98;1.15;;;;;;;;;;5055888;28;20494;-75
2021/03/12 05:17:40;;;;;;;1.30;0.93;;;;;;;;;;5055548;28;20666;-75
2021/03/12 05:20:08;;;;;;;1.20;1.00;;;;;;;;;;5056365;28;20489;-74
2021/03/12 05:22:34;;;;;;;2.65;1.55;;;;;;;;;;5056390;28;20518;-73
2021/03/12 05:25:00;;;;;;;7.77;1.37;;;;;;;;;;5056605;28;20206;-74
2021/03/12 05:27:26;;;;;;;1.47;1.00;;;;;;;;;;5056050;28;20476;-75
2021/03/12 05:29:52;;;;;;;4.30;1.47;;;;;;;;;;5056261;28;20438;-77
2021/03/12 05:32:18;;;;;;;6.90;1.73;;;;;;;;;;5056532;28;20988;-73
2021/03/12 05:34:44;;;;;;;1.30;1.00;;;;;;;;;;5056413;28;20428;-75
2021/03/12 05:37:10;;;;;;;3.77;1.43;;;;;;;;;;5055651;28;20436;-75
2021/03/12 05:39:36;;;;;;;1.88;1.13;;;;;;;;;;5055636;28;20431;-74
2021/03/12 05:42:03;;;;;;;2.80;1.10;;;;;;;;;;5055361;28;20620;-76
2021/03/12 05:44:29;;;;;;;1.20;1.10;;;;;;;;;;5055838;28;20189;-73
2021/03/12 05:46:55;;;;;;;1.77;1.00;;;;;;;;;;5055141;28;20198;-75
2021/03/12 05:49:21;;;;;;;1.10;1.00;;;;;;;;;;5054919;28;20500;-74
2021/03/12 05:51:47;;;;;;;2.60;1.40;;;;;;;;;;5055036;28;20190;-74
2021/03/12 05:54:14;;;;;;;7.70;1.10;;;;;;;;;;5054895;28;20224;-75
2021/03/12 05:56:40;;;;;;;1.85;1.45;;;;;;;;;;5054863;28;20440;-74
2021/03/12 05:59:06;;;;;;;1.60;1.30;;;;;;;;;;5055002;28;20624;-74
2021/03/12 06:01:32;;;;;;;3.13;1.13;;;;;;;;;;5054533;28;20447;-75
2021/03/12 06:03:58;;;;;;;1.57;1.20;;;;;;;;;;5055064;28;20532;-74
2021/03/12 06:06:26;;;;;;;4.28;1.70;;;;;;;;;;5054826;28;20458;-75
2021/03/12 06:08:52;;;;;;;1.33;1.10;;;;;;;;;;5054935;28;20189;-74
2021/03/12 06:11:18;;;;;;;2.15;0.70;;;;;;;;;;5055114;28;20239;-73
2021/03/12 06:13:51;;;;;;;0.80;0.80;;;;;;;;;;5054260;28;20200;-75
2021/03/12 06:16:21;;;;;;;0.80;0.68;;;;;;;;;;5054922;28;20217;-73
2021/03/12 06:19:06;;;;;;;2.95;1.60;;;;;;;;;;5054321;28;20376;-74
2021/03/12 06:21:32;;;;;;;0.70;0.65;;;;;;;;;;5054398;28;20254;-74
2021/03/12 06:23:58;;;;;;;2.60;1.00;;;;;;;;;;5054144;28;20707;-75
2021/03/12 06:26:42;;;;;;;1.17;0.70;;;;;;;;;;5054379;28;20444;-76
2021/03/12 06:29:09;;;;;;;1.55;1.38;;;;;;;;;;5054196;28;20565;-75
2021/03/12 06:31:35;;;;;;;1.65;1.27;;;;;;;;;;5053386;28;20204;-75
2021/03/12 06:34:07;;;;;;;2.75;1.38;;;;;;;;;;5053911;28;20197;-75
2021/03/12 06:36:33;;;;;;;3.03;0.93;;;;;;;;;;5054012;28;20314;-74
2021/03/12 06:38:59;;;;;;;1.97;0.97;;;;;;;;;;5054050;28;20221;-75
2021/03/12 06:41:38;;;;;;;1.77;1.57;;;;;;;;;;5054706;28;20435;-73
2021/03/12 06:44:23;;;;;;;2.40;1.05;;;;;;;;;;5054077;28;20497;-74
2021/03/12 06:46:49;;;;;;;4.63;1.52;;;;;;;;;;5053833;28;20209;-75
2021/03/12 06:49:15;;;;;;;2.83;0.93;;;;;;;;;;5053498;28;20274;-73
2021/03/12 06:51:52;;;;;;;2.20;1.03;;;;;;;;;;5054150;28;20457;-75
2021/03/12 06:54:18;;;;;;;2.47;1.52;;;;;;;;;;5053975;28;20868;-75
2021/03/12 06:56:45;;;;;;;1.93;1.37;;;;;;;;;;5054108;28;20194;-74
2021/03/12 06:59:10;;;;;;;2.05;1.40;;;;;;;;;;5053727;28;20554;-74
2021/03/12 07:01:36;;;;;;;2.80;1.43;;;;;;;;;;5053251;28;20196;-74
2021/03/12 07:04:09;;;;;;;3.00;1.30;;;;;;;;;;5054376;28;20507;-76
2021/03/12 07:06:42;;;;;;;2.28;1.08;;;;;;;;;;5053651;28;20424;-75
2021/03/12 07:09:08;;;;;;;2.75;1.50;;;;;;;;;;5053407;28;20200;-76
2021/03/12 07:11:34;;;;;;;4.90;1.60;;;;;;;;;;5053943;28;20277;-75
2021/03/12 07:14:01;;;;;;;3.50;1.27;;;;;;;;;;5052987;28;20586;-74
2021/03/12 07:16:27;;;;;;;2.10;1.27;;;;;;;;;;5053565;28;20934;-75
2021/03/12 07:18:54;;;;;;;3.00;1.05;;;;;;;;;;5052861;28;20213;-74
2021/03/12 07:21:21;;;;;;;4.32;1.45;;;;;;;;;;5053269;28;20207;-74
2021/03/12 07:23:48;;;;;;;3.67;0.98;;;;;;;;;;5053302;28;20296;-73
2021/03/12 07:26:15;;;;;;;2.80;2.08;;;;;;;;;;5053546;28;20196;-73
2021/03/12 07:28:41;;;;;;;5.22;1.20;;;;;;;;;;5054213;28;20596;-74
2021/03/12 07:31:09;;;;;;;1.20;1.10;;;;;;;;;;5054066;28;20232;-74
2021/03/12 07:33:36;;;;;;;1.80;1.58;;;;;;;;;;5052921;28;20280;-74
2021/03/12 07:36:03;;;;;;;2.85;1.13;;;;;;;;;;5053138;28;20324;-76
2021/03/12 07:38:31;;;;;;;4.40;1.40;;;;;;;;;;5052993;28;20228;-74
2021/03/12 07:40:57;;;;;;;1.65;1.25;;;;;;;;;;5053348;28;20190;-73
2021/03/12 07:43:23;;;;;;;2.42;1.05;;;;;;;;;;5053320;28;20619;-74
2021/03/12 07:45:49;;;;;;;3.75;0.90;;;;;;;;;;5053341;28;20600;-73
2021/03/12 07:48:16;;;;;;;2.55;1.38;;;;;;;;;;5052475;28;20266;-74
2021/03/12 07:50:43;;;;;;;3.15;1.15;;;;;;;;;;5053637;28;20551;-75
2021/03/12 07:53:09;;;;;;;2.17;1.23;;;;;;;;;;5053041;28;20285;-74
2021/03/12 07:55:48;;;;;;;2.65;1.08;;;;;;;;;;5052071;28;20187;-74
2021/03/12 07:58:33;;;;;;;1.13;0.50;;;;;;;;;;5051613;28;20213;-74
2021/03/12 08:01:05;;;;;;;2.20;1.00;;;;;;;;;;5052899;28;20259;-73
2021/03/12 08:03:35;;;;;;;4.13;0.70;;;;;;;;;;5052579;28;20513;-75
2021/03/12 08:06:01;;;;;;;3.58;1.20;;;;;;;;;;5052695;28;20213;-72
2021/03/12 08:08:31;;;;;;;4.77;1.50;;;;;;;;;;5052426;28;20189;-73
2021/03/12 08:11:16;;;;;;;5.03;2.65;;;;;;;;;;5052085;28;20845;-74
2021/03/12 08:13:42;;;;;;;3.53;2.35;;;;;;;;;;5052824;28;20231;-76
2021/03/12 08:16:09;;;;;;;2.20;0.87;;;;;;;;;;5052050;28;20732;-73
2021/03/12 08:18:35;;;;;;;2.88;1.27;;;;;;;;;;5052856;28;20463;-75
2021/03/12 08:21:31;;;;;;;4.20;1.30;;;;;;;;;;5052610;28;20215;-76
2021/03/12 08:23:57;;;;;;;4.25;1.48;;;;;;;;;;5052140;28;20282;-75
2021/03/12 08:26:38;;;;;;;1.65;0.95;;;;;;;;;;5052540;28;20189;-73
2021/03/12 08:29:18;;;;;;;4.00;0.75;;;;;;;;;;5052670;28;20316;-75
2021/03/12 08:31:44;;;;;;;7.90;0.90;;;;;;;;;;5051756;28;20193;-76
2021/03/12 08:34:25;;;;;;;2.97;1.27;;;;;;;;;;5052254;28;20608;-74
2021/03/12 08:36:52;;;;;;;5.85;0.82;;;;;;;;;;5051403;28;20555;-74
2021/03/12 08:39:25;;;;;;;9.63;1.52;;;;;;;;;;5052348;28;20224;-76
2021/03/12 08:41:51;;;;;;;3.85;1.48;;;;;;;;;;5051728;28;20240;-76
2021/03/12 08:44:17;;;;;;;4.17;1.60;;;;;;;;;;5052358;28;20192;-74
2021/03/12 08:46:43;;;;;;;3.00;1.90;;;;;;;;;;5051516;28;20484;-75
2021/03/12 08:49:11;;;;;;;6.38;1.40;;;;;;;;;;5051962;28;20508;-74
2021/03/12 08:51:38;;;;;;;1.63;1.52;;;;;;;;;;5051669;28;20202;-74
2021/03/12 08:54:05;;;;;;;3.30;0.95;;;;;;;;;;5052254;28;20183;-75
2021/03/12 08:56:32;;;;;;;2.55;0.75;;;;;;;;;;5051998;28;20194;-75
2021/03/12 08:58:59;;;;;;;2.35;1.30;;;;;;;;;;5052053;28;20284;-74
2021/03/12 09:01:26;;;;;;;2.65;1.00;;;;;;;;;;5051757;28;20192;-75
2021/03/12 09:03:53;;;;;;;2.25;1.00;;;;;;;;;;5052284;28;20203;-74
2021/03/12 09:06:20;;;;;;;11.32;1.40;;;;;;;;;;5052409;28;20223;-74
2021/03/12 09:08:46;;;;;;;13.55;1.90;;;;;;;;;;5051794;28;20285;-79
2021/03/12 09:11:15;;;;;;;1.50;1.40;;;;;;;;;;5052134;28;20549;-73
2021/03/12 09:13:42;;;;;;;3.67;1.27;;;;;;;;;;5052025;28;20190;-74
2021/03/12 09:16:09;;;;;;;5.07;1.05;;;;;;;;;;5051750;28;20200;-73
2021/03/12 09:18:36;;;;;;;3.58;0.90;;;;;;;;;;5051217;28;20290;-74
2021/03/12 09:21:03;;;;;;;2.72;1.08;;;;;;;;;;5051492;28;20270;-75
2021/03/12 09:23:36;;;;;;;5.30;1.60;;;;;;;;;;5051234;28;20294;-75
2021/03/12 09:26:02;;;;;;;2.50;1.27;;;;;;;;;;5055337;28;20617;-74
2021/03/12 09:28:29;;;;;;;7.80;1.67;;;;;;;;;;5055167;28;20213;-74
2021/03/12 09:30:56;;;;;;;5.68;1.33;;;;;;;;;;5055210;28;20188;-73
2021/03/12 09:33:29;;;;;;;3.70;1.25;;;;;;;;;;5054761;28;20198;-74
2021/03/12 09:35:55;;;;;;;1.58;1.48;;;;;;;;;;5055438;28;20393;-74
2021/03/12 09:38:28;;;;;;;5.50;1.83;;;;;;;;;;5054730;28;20304;-75
2021/03/12 09:40:54;;;;;;;2.05;0.80;;;;;;;;;;5054915;28;20476;-75
2021/03/12 09:43:20;;;;;;;2.17;0.90;;;;;;;;;;5055266;28;20672;-74
2021/03/12 09:45:48;;;;;;;2.27;1.40;;;;;;;;;;5055957;28;20433;-75
2021/03/12 09:48:14;;;;;;;0.90;0.90;;;;;;;;;;5054957;28;20456;-73
2021/03/12 09:50:40;;;;;;;8.50;2.67;;;;;;;;;;5055186;28;20292;-75
2021/03/12 09:53:07;;;;;;;2.85;1.17;;;;;;;;;;5054754;28;20193;-75
2021/03/12 09:55:34;;;;;;;2.65;1.42;;;;;;;;;;5054603;28;20276;-74
2021/03/12 09:58:02;;;;;;;3.22;1.02;;;;;;;;;;5054577;28;20221;-73
2021/03/12 10:00:28;;;;;;;8.48;1.75;;;;;;;;;;5054376;28;20410;-74
2021/03/12 10:02:55;;;;;;;4.03;1.10;;;;;;;;;;5053781;28;20186;-73
2021/03/12 10:05:22;;;;;;;1.80;0.90;;;;;;;;;;5054225;28;20454;-74
2021/03/12 10:07:48;;;;;;;6.38;2.65;;;;;;;;;;5054712;28;20636;-75
2021/03/12 10:10:16;;;;;;;8.15;2.17;;;;;;;;;;5054661;28;20229;-73
2021/03/12 10:12:42;;;;;;;1.75;1.63;;;;;;;;;;5054901;28;20205;-73
2021/03/12 10:15:09;;;;;;;1.88;1.30;;;;;;;;;;5054826;28;20193;-74
2021/03/12 10:17:35;;;;;;;3.78;1.02;;;;;;;;;;5054777;28;20238;-74
2021/03/12 10:20:04;;;;;;;4.20;1.67;;;;;;;;;;5054961;28;20212;-76
2021/03/12 10:22:31;;;;;;;7.57;2.03;;;;;;;;;;5054890;28;20725;-74
2021/03/12 10:25:01;;;;;;;4.35;1.48;;;;;;;;;;5054358;28;20201;-73
2021/03/12 10:27:29;;;;;;;6.22;1.73;;;;;;;;;;5054663;28;20612;-74
2021/03/12 10:29:55;;;;;;;2.80;0.90;;;;;;;;;;5054669;28;20278;-73
2021/03/12 10:32:21;;;;;;;2.72;1.13;;;;;;;;;;5054935;28;20203;-75
2021/03/12 10:34:49;;;;;;;8.10;1.30;;;;;;;;;;5054292;28;20207;-76
2021/03/12 10:37:17;;;;;;;3.40;1.08;;;;;;;;;;5053577;28;20538;-74
2021/03/12 10:39:44;;;;;;;6.82;1.10;;;;;;;;;;5053954;28;20285;-74
2021/03/12 10:42:10;;;;;;;2.72;1.30;;;;;;;;;;5054013;28;20293;-74
2021/03/12 10:44:52;;;;;;;4.25;1.55;;;;;;;;;;5053697;28;20201;-74
2021/03/12 10:47:18;;;;;;;2.85;1.90;;;;;;;;;;5053733;28;20261;-74
2021/03/12 10:49:44;;;;;;;1.30;0.70;;;;;;;;;;5053309;28;20619;-74
2021/03/12 10:52:19;;;;;;;4.77;2.17;;;;;;;;;;5053325;28;20437;-74
2021/03/12 10:54:46;;;;;;;3.42;1.40;;;;;;;;;;5053495;28;20430;-75
2021/03/12 10:57:12;;;;;;;3.08;1.20;;;;;;;;;;5053820;28;20191;-75
2021/03/12 10:59:52;;;;;;;3.88;1.20;;;;;;;;;;5053187;28;20314;-73
2021/03/12 11:02:18;;;;;;;5.03;1.20;;;;;;;;;;5053297;28;20226;-74
2021/03/12 11:04:44;;;;;;;3.00;1.10;;;;;;;;;;5053411;28;20189;-74
2021/03/12 11:07:10;;;;;;;2.00;1.20;;;;;;;;;;5053373;28;20784;-74
2021/03/12 11:09:36;;;;;;;7.27;1.60;;;;;;;;;;5053490;28;20282;-73
2021/03/12 11:12:03;;;;;;;1.77;1.17;;;;;;;;;;5053087;28;20443;-73
2021/03/12 11:14:33;;;;;;;7.55;1.05;;;;;;;;;;5053009;28;20901;-74
2021/03/12 11:16:59;;;;;;;6.93;1.88;;;;;;;;;;5052840;28;20192;-75
2021/03/12 11:19:26;;;;;;;6.03;1.30;;;;;;;;;;5053270;28;20212;-76
2021/03/12 11:21:52;;;;;;;5.57;1.90;;;;;;;;;;5053277;28;20447;-75
2021/03/12 11:24:18;;;;;;;2.63;0.90;;;;;;;;;;5052826;28;20688;-75
2021/03/12 11:26:44;;;;;;;2.03;1.17;;;;;;;;;;5053387;28;20204;-77
2021/03/12 11:29:11;;;;;;;6.00;1.45;;;;;;;;;;5053213;28;20196;-73
2021/03/12 11:31:37;;;;;;;1.10;1.00;;;;;;;;;;5052608;28;20290;-75
2021/03/12 11:34:03;;;;;;;2.67;1.90;;;;;;;;;;5053068;28;20676;-75
2021/03/12 11:36:29;;;;;;;5.60;1.52;;;;;;;;;;5052457;28;20233;-75
2021/03/12 11:38:55;;;;;;;1.00;0.60;;;;;;;;;;5052484;28;20251;-75
2021/03/12 11:41:21;;;;;;;2.17;1.10;;;;;;;;;;5051976;28;20201;-74
2021/03/12 11:43:47;;;;;;;3.40;1.00;;;;;;;;;;5052700;28;20610;-76
2021/03/12 11:46:14;;;;;;;8.23;1.77;;;;;;;;;;5052705;28;20489;-73
2021/03/12 11:48:40;;;;;;;3.50;1.25;;;;;;;;;;5053079;28;20362;-74
2021/03/12 11:51:06;;;;;;;2.60;1.10;;;;;;;;;;5052888;28;20219;-75
2021/03/12 11:53:33;;;;;;;1.88;0.70;;;;;;;;;;5053539;28;20312;-74
2021/03/12 11:55:59;;;;;;;5.18;2.30;;;;;;;;;;5052346;28;20675;-75
2021/03/12 11:58:25;;;;;;;4.50;1.40;;;;;;;;;;5052159;28;20250;-75
2021/03/12 12:00:51;;;;;;;1.05;0.90;;;;;;;;;;5052984;28;20471;-75
2021/03/12 12:03:18;;;;;;;2.30;1.23;;;;;;;;;;5052745;28;20701;-75
2021/03/12 12:05:45;;;;;;;4.78;1.15;;;;;;;;;;5052481;28;20443;-74
2021/03/12 12:08:11;;;;;;;3.67;1.30;;;;;;;;;;5052059;28;20193;-73
2021/03/12 12:10:37;;;;;;;2.88;1.17;;;;;;;;;;5052591;28;21039;-75
2021/03/12 12:13:04;;;;;;;1.80;0.80;;;;;;;;;;5052363;28;20243;-72
2021/03/12 12:15:31;;;;;;;1.63;1.00;;;;;;;;;;5052984;28;20786;-74
2021/03/12 12:17:59;;;;;;;10.57;1.88;;;;;;;;;;5052076;28;20545;-75
2021/03/12 12:20:27;;;;;;;4.40;1.17;;;;;;;;;;5052572;28;20205;-74
2021/03/12 12:22:53;;;;;;;1.10;0.90;;;;;;;;;;5052517;28;20690;-75
2021/03/12 12:25:19;;;;;;;4.53;0.80;;;;;;;;;;5052298;28;20238;-74
2021/03/12 12:27:46;;;;;;;1.42;0.90;;;;;;;;;;5052310;28;20267;-76
2021/03/12 12:30:12;;;;;;;1.77;0.88;;;;;;;;;;5051937;28;20197;-74
2021/03/12 12:32:38;;;;;;;1.48;0.95;;;;;;;;;;5051558;28;20205;-73
2021/03/12 12:35:06;;;;;;;1.33;0.87;;;;;;;;;;5051611;28;20250;-74
2021/03/12 12:37:33;;;;;;;4.88;2.13;;;;;;;;;;5052794;28;20463;-73
2021/03/12 12:39:59;;;;;;;3.08;1.67;;;;;;;;;;5051813;28;20265;-75
2021/03/12 12:42:25;;;;;;;11.48;4.90;;;;;;;;;;5051848;28;20205;-73
2021/03/12 12:44:51;;;;;;;2.55;1.23;;;;;;;;;;5052003;28;20232;-75
2021/03/12 12:47:18;;;;;;;6.90;1.40;;;;;;;;;;5051871;28;20201;-74
2021/03/12 12:49:44;;;;;;;3.20;0.98;;;;;;;;;;5052038;28;20557;-75
2021/03/12 12:52:10;;;;;;;5.55;1.15;;;;;;;;;;5052435;28;20575;-74
2021/03/12 12:54:37;;;;;;;1.40;0.82;;;;;;;;;;5052032;28;20666;-75
2021/03/12 12:57:03;;;;;;;5.38;2.50;;;;;;;;;;5052118;28;20234;-75
2021/03/12 12:59:29;;;;;;;3.92;1.25;;;;;;;;;;5052349;28;20296;-75
2021/03/12 13:01:55;;;;;;;3.72;1.05;;;;;;;;;;5055258;28;20220;-73
2021/03/12 13:04:21;;;;;;;3.97;1.60;;;;;;;;;;5055848;28;20263;-76
2021/03/12 13:06:47;;;;;;;1.40;0.73;;;;;;;;;;5055689;28;20188;-76
2021/03/12 13:09:13;;;;;;;1.85;1.15;;;;;;;;;;5054678;28;20441;-74
2021/03/12 13:11:40;;;;;;;1.75;0.90;;;;;;;;;;5055367;28;20242;-75
2021/03/12 13:14:06;;;;;;;5.40;2.28;;;;;;;;;;5056288;28;20199;-75
2021/03/12 13:16:32;;;;;;;3.40;1.17;;;;;;;;;;5055444;28;20200;-74
2021/03/12 13:18:58;;;;;;;5.07;1.30;;;;;;;;;;5055340;28;21078;-75
2021/03/12 13:21:24;;;;;;;1.98;1.13;;;;;;;;;;5055321;28;20636;-76
2021/03/12 13:23:51;;;;;;;4.18;1.25;;;;;;;;;;5055016;28;20197;-73
2021/03/12 13:26:17;;;;;;;1.30;0.90;;;;;;;;;;5055195;28;20241;-76
2021/03/12 13:28:45;;;;;;;2.20;1.17;;;;;;;;;;5054641;28;20259;-75
2021/03/12 13:31:11;;;;;;;1.60;1.25;;;;;;;;;;5054168;28;20204;-75
2021/03/12 13:33:37;;;;;;;2.75;1.38;;;;;;;;;;5056352;28;20208;-76
2021/03/12 13:36:04;;;;;;;0.80;0.60;;;;;;;;;;5054933;28;20593;-76
2021/03/12 13:38:30;;;;;;;1.15;0.95;;;;;;;;;;5054257;28;20221;-75
2021/03/12 13:40:57;;;;;;;4.60;2.03;;;;;;;;;;5055345;28;20636;-75
2021/03/12 13:43:25;;;;;;;6.00;1.50;;;;;;;;;;5055567;28;21065;-77
2021/03/12 13:45:52;;;;;;;2.72;0.80;;;;;;;;;;5055027;28;20500;-74
2021/03/12 13:48:18;;;;;;;2.15;1.05;;;;;;;;;;5055623;28;20220;-74
2021/03/12 13:50:44;;;;;;;1.50;1.00;;;;;;;;;;5054794;28;20197;-73
2021/03/12 13:53:11;;;;;;;3.33;1.10;;;;;;;;;;5055125;28;20873;-75
2021/03/12 13:55:37;;;;;;;7.93;1.27;;;;;;;;;;5055622;28;20202;-73
2021/03/12 13:58:03;;;;;;;2.33;0.82;;;;;;;;;;5054696;28;20310;-74
2021/03/12 14:00:29;;;;;;;3.35;0.80;;;;;;;;;;5054855;28;20254;-75
2021/03/12 14:02:56;;;;;;;5.30;1.52;;;;;;;;;;5054245;28;20197;-73
2021/03/12 14:05:23;;;;;;;1.67;1.13;;;;;;;;;;5054232;28;20515;-72
2021/03/12 14:07:49;;;;;;;3.65;1.67;;;;;;;;;;5051316;28;20228;-74
2021/03/12 14:10:15;;;;;;;4.82;1.17;;;;;;;;;;5054948;28;20631;-75
2021/03/12 14:12:41;;;;;;;2.53;1.10;;;;;;;;;;5055058;28;20203;-75
2021/03/12 14:15:09;;;;;;;2.80;0.90;;;;;;;;;;5054456;28;20635;-75
2021/03/12 14:17:35;;;;;;;2.78;1.17;;;;;;;;;;5053832;28;20284;-75
2021/03/12 14:20:02;;;;;;;3.67;1.38;;;;;;;;;;5054547;28;20292;-74
2021/03/12 14:22:29;;;;;;;4.30;1.05;;;;;;;;;;5054479;28;20646;-74
2021/03/12 14:24:55;;;;;;;5.93;1.00;;;;;;;;;;5054745;28;20205;-74
2021/03/12 14:27:21;;;;;;;3.10;1.40;;;;;;;;;;5054506;28;20209;-73
2021/03/12 14:29:47;;;;;;;4.43;1.00;;;;;;;;;;5053869;28;20213;-74
2021/03/12 14:32:14;;;;;;;6.70;2.00;;;;;;;;;;5053589;28;20202;-74
2021/03/12 14:34:40;;;;;;;1.00;0.70;;;;;;;;;;5054154;28;20205;-76
2021/03/12 14:37:07;;;;;;;2.63;2.17;;;;;;;;;;5053321;28;20621;-76
2021/03/12 14:39:33;;;;;;;1.50;0.95;;;;;;;;;;5054371;28;20226;-75
2021/03/12 14:41:59;;;;;;;2.30;0.95;;;;;;;;;;5053666;28;20278;-73
2021/03/12 14:44:28;;;;;;;1.52;0.98;;;;;;;;;;5053965;28;20236;-73